< < Back
Terminal Aerodrome Forecast


Current Version              Previous Versions:   1  2  3  4  5  6  7  8  9  

Terminal Aerodrome Forecast

123
FTUS44 KMRX 211127
TAFCHA
TAF
KCHA 211127Z 2112/2212 34003KT P6SM FEW060
     FM211600 34009KT P6SM SCT050
     FM220000 36004KT P6SM FEW050
     FM220600 01003KT P6SM SKC=

Latest METAR

178
SAUS80 KWBC 220800
MTRCHA
METAR KCHA 220753Z AUTO 34005KT 10SM CLR 09/04 A3010 RMK AO2 SLP191
T00890044


USA.gov is the U.S. government's official web portal to all federal, state and local government web resources and services.